Time;durP1;ratioP1;P1;durP2;ratioP2;P2;SDS_P1;SDS_P2;PMS_P1;PMS_P2;Temp;Humidity;BMP_temperature;BMP_pressure;BME280_temperature;BME280_humidity;BME280_pressure;Samples;Min_cycle;Max_cycle;Signal;HPM_P1;HPM_P2
2021/12/18 00:00:49;;;;;;;18.07;8.53;;;8.00;99.90;;;;;;5067074;28;20293;-67
2021/12/18 00:03:16;;;;;;;14.23;7.10;;;7.90;99.90;;;;;;5072842;28;20206;-67
2021/12/18 00:05:43;;;;;;;17.57;7.93;;;8.00;99.90;;;;;;5072789;28;20210;-67
2021/12/18 00:08:11;;;;;;;14.00;7.77;;;7.90;99.90;;;;;;5070833;28;20198;-67
2021/12/18 00:10:38;;;;;;;16.13;8.33;;;7.90;99.90;;;;;;5066773;28;20209;-67
2021/12/18 00:13:05;;;;;;;15.43;7.50;;;7.90;99.90;;;;;;5070739;28;20202;-67
2021/12/18 00:15:32;;;;;;;16.40;7.70;;;7.90;99.90;;;;;;5070177;28;20209;-67
2021/12/18 00:17:59;;;;;;;12.60;6.73;;;7.90;99.90;;;;;;5054731;28;20676;-67
2021/12/18 00:20:27;;;;;;;13.13;7.00;;;7.90;99.90;;;;;;5069856;28;20216;-67
2021/12/18 00:22:55;;;;;;;13.33;6.40;;;7.90;99.90;;;;;;5071556;28;20203;-67
2021/12/18 00:25:23;;;;;;;12.73;5.83;;;7.90;99.90;;;;;;5065556;28;20198;-67
2021/12/18 00:27:51;;;;;;;13.73;6.20;;;7.90;99.90;;;;;;5065872;28;20499;-67
2021/12/18 00:30:18;;;;;;;10.17;5.53;;;7.90;99.90;;;;;;5056072;28;20210;-67
2021/12/18 00:32:45;;;;;;;12.30;6.27;;;7.90;99.90;;;;;;5069713;28;20296;-67
2021/12/18 00:35:12;;;;;;;13.20;6.17;;;7.90;99.90;;;;;;5061919;28;20652;-67
2021/12/18 00:37:39;;;;;;;11.17;6.07;;;7.90;99.90;;;;;;5054977;28;20195;-67
2021/12/18 00:40:11;;;;;;;12.47;5.97;;;7.90;99.90;;;;;;5067495;28;20210;-67
2021/12/18 00:42:44;;;;;;;12.53;5.20;;;7.90;99.90;;;;;;5034848;28;20673;-67
2021/12/18 00:45:14;;;;;;;14.50;5.43;;;7.90;99.90;;;;;;5072893;28;20194;-67
2021/12/18 00:47:42;;;;;;;14.00;6.10;;;7.90;99.90;;;;;;5066955;28;20272;-67
2021/12/18 00:50:11;;;;;;;10.20;5.53;;;7.90;99.90;;;;;;5037226;28;20200;-67
2021/12/18 00:52:38;;;;;;;10.83;5.63;;;7.90;99.90;;;;;;5073607;28;20209;-67
2021/12/18 00:55:06;;;;;;;10.10;5.07;;;7.90;99.90;;;;;;5055280;28;20211;-68
2021/12/18 00:57:33;;;;;;;11.47;5.80;;;7.90;99.90;;;;;;5054830;28;20249;-67
2021/12/18 01:00:03;;;;;;;12.93;6.03;;;7.90;99.90;;;;;;5055370;28;20571;-67
2021/12/18 01:02:30;;;;;;;12.67;6.47;;;7.90;99.90;;;;;;5052591;28;20202;-67
2021/12/18 01:04:57;;;;;;;11.30;5.80;;;7.90;99.90;;;;;;5060014;28;20203;-67
2021/12/18 01:07:25;;;;;;;10.70;5.73;;;7.90;99.90;;;;;;5066718;28;20218;-67
2021/12/18 01:10:01;;;;;;;9.87;5.83;;;7.90;99.90;;;;;;5066771;28;20191;-67
2021/12/18 01:12:34;;;;;;;12.20;5.73;;;7.90;99.90;;;;;;5071501;28;20281;-67
2021/12/18 01:15:14;;;;;;;10.63;5.47;;;7.90;99.90;;;;;;5054401;28;20205;-66
2021/12/18 01:23:10;;;;;;;10.53;5.20;;;7.80;99.90;;;;;;5069327;28;20333;-71
2021/12/18 01:25:37;;;;;;;10.30;5.23;;;7.80;99.90;;;;;;5066234;28;20206;-71
2021/12/18 01:28:05;;;;;;;10.73;5.20;;;7.80;99.90;;;;;;5059754;28;20211;-73
2021/12/18 01:30:34;;;;;;;10.03;5.43;;;7.80;99.90;;;;;;5064830;28;20567;-72
2021/12/18 01:33:01;;;;;;;10.27;5.10;;;7.80;99.90;;;;;;5059015;28;20206;-72
2021/12/18 01:35:28;;;;;;;11.50;5.10;;;7.80;99.90;;;;;;5058389;28;20653;-72
2021/12/18 01:37:57;;;;;;;11.50;5.70;;;7.80;99.90;;;;;;5053670;28;20558;-72
2021/12/18 01:40:24;;;;;;;11.83;5.80;;;7.80;99.90;;;;;;5056751;28;20577;-72
2021/12/18 01:43:52;;;;;;;9.90;4.57;;;7.80;99.90;;;;;;5043887;28;20559;-72
2021/12/18 01:46:31;;;;;;;9.77;4.57;;;7.80;99.90;;;;;;5055376;28;20202;-72
2021/12/18 01:52:00;;;;;;;9.53;4.20;;;7.70;99.90;;;;;;5057653;28;20210;-70
2021/12/18 01:54:27;;;;;;;9.77;4.23;;;7.70;99.90;;;;;;5070214;28;20524;-67
2021/12/18 01:56:54;;;;;;;10.17;4.93;;;7.70;99.90;;;;;;5055354;28;20215;-66
2021/12/18 01:59:34;;;;;;;8.70;4.90;;;7.80;99.90;;;;;;5054384;28;20258;-71
2021/12/18 02:02:02;;;;;;;7.97;4.17;;;7.80;99.90;;;;;;5069453;28;20208;-70
2021/12/18 02:04:29;;;;;;;11.23;5.47;;;7.80;99.90;;;;;;5065717;28;20274;-67
2021/12/18 02:06:59;;;;;;;9.80;4.10;;;7.80;99.90;;;;;;5051151;28;20206;-72
2021/12/18 02:09:33;;;;;;;9.47;4.37;;;7.80;99.90;;;;;;5060216;28;20229;-72
2021/12/18 02:12:01;;;;;;;12.30;5.57;;;7.70;99.90;;;;;;5072064;28;20652;-71
2021/12/18 02:19:32;;;;;;;11.80;4.97;;;7.70;99.90;;;;;;5064434;28;20564;-67
2021/12/18 02:20:23;;;;;;;7.60;3.77;;;7.70;99.90;;;;;;5055408;28;20241;-71
2021/12/18 02:22:51;;;;;;;9.60;4.60;;;7.70;99.90;;;;;;5057381;28;20214;-72
2021/12/18 02:25:20;;;;;;;9.57;4.27;;;7.70;99.90;;;;;;5055829;28;20625;-66
2021/12/18 02:27:48;;;;;;;8.47;4.43;;;7.70;99.90;;;;;;5064201;28;20248;-66
2021/12/18 02:30:16;;;;;;;8.10;3.93;;;7.60;99.90;;;;;;5066327;28;20214;-71
2021/12/18 02:32:43;;;;;;;8.43;3.90;;;7.70;99.90;;;;;;5069581;28;20293;-67
2021/12/18 02:35:26;;;;;;;7.10;3.67;;;7.70;99.90;;;;;;5061752;28;20230;-67
2021/12/18 02:38:02;;;;;;;8.33;4.47;;;7.70;99.90;;;;;;5071510;28;20700;-72
2021/12/18 02:40:53;;;;;;;7.37;3.90;;;7.70;99.90;;;;;;5055931;28;20222;-67
2021/12/18 02:43:23;;;;;;;8.70;4.03;;;7.60;99.90;;;;;;5037569;28;20211;-67
2021/12/18 02:45:53;;;;;;;12.17;4.70;;;7.70;99.90;;;;;;5068183;28;20255;-67
2021/12/18 02:48:20;;;;;;;8.63;3.87;;;7.70;99.90;;;;;;5058106;28;20330;-66
2021/12/18 02:50:49;;;;;;;10.73;4.77;;;7.60;99.90;;;;;;5070002;28;20617;-66
2021/12/18 02:53:16;;;;;;;9.80;4.60;;;7.60;99.90;;;;;;5058391;28;20211;-71
2021/12/18 02:55:43;;;;;;;10.53;4.43;;;7.70;99.90;;;;;;5059517;28;20667;-67
2021/12/18 02:58:10;;;;;;;8.73;4.03;;;7.70;99.90;;;;;;5069859;28;20203;-67
2021/12/18 03:00:37;;;;;;;8.33;4.37;;;7.60;99.90;;;;;;5071444;28;20268;-72
2021/12/18 03:03:09;;;;;;;9.50;4.00;;;7.60;99.90;;;;;;5057719;28;20499;-71
2021/12/18 03:05:43;;;;;;;8.47;4.53;;;7.60;99.90;;;;;;5060308;28;20210;-72
2021/12/18 03:08:17;;;;;;;10.00;4.80;;;7.70;99.90;;;;;;5061625;28;20202;-71
2021/12/18 03:24:57;;;;;;;12.17;5.90;;;7.70;99.90;;;;;;5055970;28;20257;-71
2021/12/18 03:27:25;;;;;;;14.20;5.97;;;7.70;99.90;;;;;;5067606;28;20202;-66
2021/12/18 03:29:52;;;;;;;14.60;6.30;;;7.70;99.90;;;;;;5069806;28;20200;-67
2021/12/18 03:32:19;;;;;;;15.73;7.07;;;7.70;99.90;;;;;;5062400;28;20209;-67
2021/12/18 03:34:46;;;;;;;16.00;7.50;;;7.70;99.90;;;;;;5066142;28;20213;-67
2021/12/18 03:37:13;;;;;;;14.20;6.33;;;7.70;99.90;;;;;;5053931;28;20210;-67
2021/12/18 03:39:40;;;;;;;14.20;6.20;;;7.60;99.90;;;;;;5070981;28;20222;-66
2021/12/18 03:42:09;;;;;;;15.03;6.67;;;7.60;99.90;;;;;;5051351;28;20201;-67
2021/12/18 03:44:37;;;;;;;15.63;6.80;;;7.60;99.90;;;;;;5058805;28;20204;-66
2021/12/18 03:47:04;;;;;;;13.97;5.93;;;7.70;99.90;;;;;;5071100;28;20195;-66
2021/12/18 03:49:31;;;;;;;15.27;6.73;;;7.60;99.90;;;;;;5062029;28;20190;-66
2021/12/18 03:51:58;;;;;;;16.27;6.97;;;7.70;99.90;;;;;;5070815;28;20198;-67
2021/12/18 03:54:25;;;;;;;13.37;6.03;;;7.60;99.90;;;;;;5060874;28;20212;-66
2021/12/18 03:56:52;;;;;;;16.73;6.97;;;7.60;99.90;;;;;;5051424;28;20196;-66
2021/12/18 03:59:20;;;;;;;13.20;6.30;;;7.60;99.90;;;;;;5052953;28;20222;-67
2021/12/18 04:01:47;;;;;;;14.00;6.73;;;7.60;99.90;;;;;;5052434;28;20549;-67
2021/12/18 04:04:15;;;;;;;12.20;5.50;;;7.60;99.90;;;;;;5051116;28;20218;-67
2021/12/18 04:06:42;;;;;;;14.00;6.70;;;7.60;99.90;;;;;;5060859;28;20199;-66
2021/12/18 04:09:11;;;;;;;14.43;6.57;;;7.60;99.90;;;;;;5055622;28;20202;-67
2021/12/18 04:11:38;;;;;;;13.93;5.97;;;7.60;99.90;;;;;;5055295;28;20193;-66
2021/12/18 04:14:05;;;;;;;14.30;6.33;;;7.60;99.90;;;;;;5063061;28;20202;-67
2021/12/18 04:16:34;;;;;;;14.03;6.30;;;7.60;99.90;;;;;;5073707;28;20198;-66
2021/12/18 04:19:01;;;;;;;12.03;5.77;;;7.60;99.90;;;;;;5073823;28;20219;-66
2021/12/18 04:21:29;;;;;;;14.90;6.27;;;7.60;99.90;;;;;;5073276;28;20312;-67
2021/12/18 04:23:56;;;;;;;12.93;6.30;;;7.60;99.90;;;;;;5074134;28;20202;-67
2021/12/18 04:26:23;;;;;;;13.00;5.97;;;7.60;99.90;;;;;;5070078;28;20659;-67
2021/12/18 04:28:49;;;;;;;12.83;6.03;;;7.60;99.90;;;;;;5068029;28;20221;-67
2021/12/18 04:31:16;;;;;;;12.17;5.60;;;7.60;99.90;;;;;;5054950;28;20199;-67
2021/12/18 04:33:45;;;;;;;11.80;6.10;;;7.60;99.90;;;;;;5055325;28;20199;-66
2021/12/18 04:36:12;;;;;;;11.93;5.63;;;7.50;99.90;;;;;;5058343;28;20191;-67
2021/12/18 04:38:39;;;;;;;11.73;5.43;;;7.50;99.90;;;;;;5067938;28;20207;-67
2021/12/18 04:41:06;;;;;;;10.17;5.10;;;7.50;99.90;;;;;;5064531;28;20222;-67
2021/12/18 04:43:33;;;;;;;11.83;5.03;;;7.40;99.90;;;;;;5067386;28;20207;-66
2021/12/18 04:46:00;;;;;;;12.90;6.33;;;7.50;99.90;;;;;;5069618;28;20209;-67
2021/12/18 04:48:26;;;;;;;12.33;5.90;;;7.40;99.90;;;;;;5066560;28;20203;-67
2021/12/18 04:50:55;;;;;;;10.50;5.43;;;7.40;99.90;;;;;;5054317;28;20199;-66
2021/12/18 04:53:22;;;;;;;10.47;5.20;;;7.40;99.90;;;;;;5054305;28;20211;-66
2021/12/18 04:55:49;;;;;;;10.17;5.17;;;7.30;99.90;;;;;;5055800;28;20198;-66
2021/12/18 04:58:15;;;;;;;10.27;5.40;;;7.30;99.90;;;;;;5058829;28;20578;-66
2021/12/18 05:00:46;;;;;;;9.70;4.77;;;7.30;99.90;;;;;;5066852;28;20684;-66
2021/12/18 05:03:15;;;;;;;13.93;6.27;;;7.30;99.90;;;;;;5054736;28;20202;-66
2021/12/18 05:05:42;;;;;;;12.83;6.13;;;7.30;99.90;;;;;;5060451;28;20604;-67
2021/12/18 05:08:10;;;;;;;11.60;5.67;;;7.20;99.90;;;;;;5063589;28;20211;-66
2021/12/18 05:10:38;;;;;;;9.80;5.50;;;7.30;99.90;;;;;;5055589;28;20196;-67
2021/12/18 05:13:05;;;;;;;11.23;5.70;;;7.20;99.90;;;;;;5059375;28;20210;-66
2021/12/18 05:15:32;;;;;;;8.87;5.23;;;7.20;99.90;;;;;;5063932;28;20672;-67
2021/12/18 05:17:59;;;;;;;10.40;5.30;;;7.30;99.90;;;;;;5053063;28;20573;-66
2021/12/18 05:20:26;;;;;;;11.37;5.70;;;7.20;99.90;;;;;;5054982;28;20221;-66
2021/12/18 05:22:53;;;;;;;11.57;5.87;;;7.30;99.90;;;;;;5053278;28;20203;-66
2021/12/18 05:25:21;;;;;;;9.97;5.23;;;7.20;99.90;;;;;;5055421;28;20195;-67
2021/12/18 05:27:48;;;;;;;11.50;6.07;;;7.30;99.90;;;;;;5073129;28;20198;-67
2021/12/18 05:30:15;;;;;;;11.33;5.50;;;7.20;99.90;;;;;;5067478;28;20225;-67
2021/12/18 05:32:41;;;;;;;11.10;5.73;;;7.30;99.90;;;;;;5054784;28;20203;-67
2021/12/18 05:35:09;;;;;;;12.77;5.93;;;7.30;99.90;;;;;;5054947;28;20573;-67
2021/12/18 05:37:48;;;;;;;11.30;5.30;;;7.30;99.90;;;;;;5056882;28;20279;-67
2021/12/18 05:40:18;;;;;;;11.33;5.43;;;7.30;99.90;;;;;;5057679;28;20222;-67
2021/12/18 05:42:47;;;;;;;11.83;5.30;;;7.20;99.90;;;;;;5050786;28;20586;-67
2021/12/18 05:45:14;;;;;;;12.60;5.83;;;7.20;99.90;;;;;;5057290;28;20468;-67
2021/12/18 05:47:43;;;;;;;11.80;5.87;;;7.30;99.90;;;;;;5040896;28;20195;-66
2021/12/18 05:50:11;;;;;;;13.30;6.90;;;7.30;99.90;;;;;;5056300;28;20195;-66
2021/12/18 05:52:38;;;;;;;15.73;7.47;;;7.30;99.90;;;;;;5073122;28;20217;-67
2021/12/18 05:55:06;;;;;;;12.60;5.93;;;7.30;99.90;;;;;;5063582;28;20207;-67
2021/12/18 05:57:33;;;;;;;13.13;5.83;;;7.30;99.90;;;;;;5067180;28;20206;-67
2021/12/18 06:00:01;;;;;;;11.13;5.67;;;7.40;99.90;;;;;;5058831;28;20219;-67
2021/12/18 06:02:28;;;;;;;13.27;5.80;;;7.40;99.90;;;;;;5065483;28;20206;-67
2021/12/18 06:04:55;;;;;;;11.43;5.20;;;7.40;99.90;;;;;;5053168;28;20453;-67
2021/12/18 06:07:30;;;;;;;13.40;5.77;;;7.40;99.90;;;;;;5068517;28;20653;-67
2021/12/18 06:09:58;;;;;;;10.23;5.10;;;7.30;99.90;;;;;;5060028;28;20198;-67
2021/12/18 06:12:25;;;;;;;11.13;5.37;;;7.30;99.90;;;;;;5070708;28;20190;-66
2021/12/18 06:14:52;;;;;;;11.30;5.57;;;7.30;99.90;;;;;;5057881;28;20206;-67
2021/12/18 06:17:21;;;;;;;12.00;5.63;;;7.30;99.90;;;;;;5063093;28;20570;-67
2021/12/18 06:19:48;;;;;;;10.60;4.43;;;7.30;99.90;;;;;;5052519;28;20227;-66
2021/12/18 06:22:14;;;;;;;10.40;5.03;;;7.30;99.90;;;;;;5070624;28;20210;-67
2021/12/18 06:24:41;;;;;;;8.83;4.90;;;7.30;99.90;;;;;;5056265;28;20549;-67
2021/12/18 06:27:08;;;;;;;7.37;4.13;;;7.30;99.90;;;;;;5067678;28;20198;-66
2021/12/18 06:29:38;;;;;;;8.00;3.77;;;7.30;99.90;;;;;;5047830;28;20213;-66
2021/12/18 06:32:05;;;;;;;9.13;4.43;;;7.30;99.90;;;;;;5067881;28;20194;-67
2021/12/18 06:34:34;;;;;;;8.17;4.10;;;7.30;99.90;;;;;;5062614;28;20206;-67
2021/12/18 06:37:01;;;;;;;6.63;3.30;;;7.30;99.90;;;;;;5050366;28;20306;-67
2021/12/18 06:39:28;;;;;;;6.53;3.07;;;7.30;99.90;;;;;;5050364;28;20207;-67
2021/12/18 06:41:54;;;;;;;8.53;4.10;;;7.30;99.90;;;;;;5045920;28;20654;-67
2021/12/18 06:44:21;;;;;;;8.90;5.17;;;7.30;99.90;;;;;;5051293;28;20814;-66
2021/12/18 06:46:48;;;;;;;8.77;3.63;;;7.30;99.90;;;;;;5051590;28;20628;-67
2021/12/18 06:49:15;;;;;;;7.80;3.40;;;7.20;99.90;;;;;;5050067;28;20199;-67
2021/12/18 06:51:43;;;;;;;14.27;4.13;;;7.20;99.90;;;;;;5047151;28;20201;-66
2021/12/18 06:54:10;;;;;;;7.30;3.57;;;7.20;99.90;;;;;;5051851;28;20216;-67
2021/12/18 06:56:37;;;;;;;7.63;3.83;;;7.20;99.90;;;;;;5048175;28;20199;-67
2021/12/18 06:59:04;;;;;;;7.27;3.67;;;7.20;99.90;;;;;;5051710;28;20203;-67
2021/12/18 07:01:31;;;;;;;6.77;3.40;;;7.20;99.90;;;;;;5052364;28;20222;-66
2021/12/18 07:03:57;;;;;;;8.57;3.80;;;7.30;99.90;;;;;;5049354;28;20203;-67
2021/12/18 07:06:24;;;;;;;8.27;4.00;;;7.30;99.90;;;;;;5050319;28;20580;-67
2021/12/18 07:08:53;;;;;;;6.83;3.73;;;7.30;99.90;;;;;;5051518;28;20199;-66
2021/12/18 07:11:19;;;;;;;6.87;3.53;;;7.20;99.90;;;;;;5051424;28;20198;-67
2021/12/18 07:13:46;;;;;;;5.37;3.03;;;7.20;99.90;;;;;;5050533;28;20207;-67
2021/12/18 07:16:13;;;;;;;4.97;2.67;;;7.20;99.90;;;;;;5050803;28;20573;-67
2021/12/18 07:18:40;;;;;;;6.80;2.77;;;7.20;99.90;;;;;;5049325;28;20206;-67
2021/12/18 07:21:07;;;;;;;3.87;2.33;;;7.20;99.90;;;;;;5049794;28;20218;-67
2021/12/18 07:23:34;;;;;;;6.23;3.20;;;7.30;99.90;;;;;;5050135;28;20203;-67
2021/12/18 07:26:02;;;;;;;6.63;2.67;;;7.30;99.90;;;;;;5051498;28;20205;-72
2021/12/18 07:28:29;;;;;;;5.13;2.67;;;7.30;99.90;;;;;;5050685;28;20203;-71
2021/12/18 07:30:56;;;;;;;6.90;2.80;;;7.30;99.90;;;;;;5049845;28;20191;-72
2021/12/18 07:33:23;;;;;;;6.07;3.17;;;7.30;99.90;;;;;;5050608;28;20203;-71
2021/12/18 07:35:50;;;;;;;5.83;3.20;;;7.30;99.90;;;;;;5049201;28;20286;-72
2021/12/18 07:38:17;;;;;;;5.47;3.00;;;7.30;99.90;;;;;;5049138;28;20206;-72
2021/12/18 07:40:44;;;;;;;5.97;3.07;;;7.30;99.90;;;;;;5046426;28;20708;-71
2021/12/18 07:43:12;;;;;;;4.97;2.73;;;7.40;99.90;;;;;;5056150;28;20202;-72
2021/12/18 07:45:39;;;;;;;5.13;2.67;;;7.40;99.90;;;;;;5052286;28;20203;-71
2021/12/18 07:48:06;;;;;;;4.77;2.60;;;7.40;99.90;;;;;;5053810;28;20641;-72
2021/12/18 07:50:33;;;;;;;5.33;3.07;;;7.40;99.90;;;;;;5055294;28;20194;-71
2021/12/18 07:53:00;;;;;;;4.07;2.50;;;7.40;99.90;;;;;;5054958;28;20241;-71
2021/12/18 07:55:29;;;;;;;3.67;2.50;;;7.40;99.90;;;;;;5052949;28;20228;-71
2021/12/18 07:57:56;;;;;;;5.17;1.93;;;7.40;99.90;;;;;;5051843;28;20206;-72
2021/12/18 08:00:25;;;;;;;3.67;1.93;;;7.40;99.90;;;;;;5050357;28;20222;-72
2021/12/18 08:02:51;;;;;;;9.77;5.20;;;7.40;99.90;;;;;;5054741;28;20656;-72
2021/12/18 08:05:19;;;;;;;4.10;2.40;;;7.50;99.90;;;;;;5054634;28;20216;-71
2021/12/18 08:07:45;;;;;;;1.43;1.10;;;7.50;99.90;;;;;;5054609;28;20767;-71
2021/12/18 08:10:13;;;;;;;3.27;1.57;;;7.50;99.90;;;;;;5055289;28;20657;-71
2021/12/18 08:12:41;;;;;;;2.50;1.10;;;7.40;99.90;;;;;;5055889;28;20199;-71
2021/12/18 08:15:08;;;;;;;1.90;1.13;;;7.50;99.90;;;;;;5053936;28;20206;-71
2021/12/18 08:17:37;;;;;;;3.03;1.13;;;7.50;99.90;;;;;;5048696;28;20203;-72
2021/12/18 08:20:05;;;;;;;3.17;1.63;;;7.50;99.90;;;;;;5053065;28;20210;-71
2021/12/18 08:22:32;;;;;;;2.80;1.30;;;7.50;99.90;;;;;;5055809;28;20210;-71
2021/12/18 08:25:00;;;;;;;2.40;1.43;;;7.50;99.90;;;;;;5051223;28;20572;-71
2021/12/18 08:27:28;;;;;;;2.23;1.50;;;7.50;99.90;;;;;;5053765;28;20203;-72
2021/12/18 08:29:55;;;;;;;3.43;1.60;;;7.50;99.90;;;;;;5051326;28;20218;-71
2021/12/18 08:32:22;;;;;;;4.37;2.20;;;7.50;99.90;;;;;;5049889;28;20217;-71
2021/12/18 08:34:50;;;;;;;2.47;1.30;;;7.60;99.90;;;;;;5053805;28;20214;-71
2021/12/18 08:37:17;;;;;;;3.73;1.70;;;7.50;99.90;;;;;;5053760;28;20210;-71
2021/12/18 08:39:44;;;;;;;3.17;1.13;;;7.60;99.90;;;;;;5051130;28;20211;-72
2021/12/18 08:42:13;;;;;;;1.77;1.43;;;7.60;99.90;;;;;;5048189;28;20237;-71
2021/12/18 08:44:40;;;;;;;3.30;1.60;;;7.60;99.90;;;;;;5059399;28;20207;-71
2021/12/18 08:47:07;;;;;;;2.07;1.10;;;7.60;99.90;;;;;;5054131;28;20210;-71
2021/12/18 08:49:33;;;;;;;2.80;1.40;;;7.60;99.90;;;;;;5052248;28;20691;-71
2021/12/18 08:52:02;;;;;;;2.43;1.70;;;7.60;99.90;;;;;;5049246;28;20249;-71
2021/12/18 08:54:28;;;;;;;2.53;1.57;;;7.70;99.90;;;;;;5052878;28;20210;-72
2021/12/18 08:56:55;;;;;;;2.33;1.77;;;7.70;99.90;;;;;;5049764;28;20566;-71
2021/12/18 08:59:22;;;;;;;2.37;1.57;;;7.70;99.90;;;;;;5055275;28;20661;-71
2021/12/18 09:01:49;;;;;;;2.57;1.60;;;7.70;99.90;;;;;;5052509;28;20215;-72
2021/12/18 09:04:16;;;;;;;3.43;1.90;;;7.70;99.90;;;;;;5051838;28;20265;-71
2021/12/18 09:06:43;;;;;;;2.60;1.53;;;7.70;99.90;;;;;;5052207;28;20580;-71
2021/12/18 09:09:11;;;;;;;2.57;1.37;;;7.80;99.90;;;;;;5051599;28;20225;-72
2021/12/18 09:11:38;;;;;;;2.53;1.80;;;7.80;99.90;;;;;;5050948;28;20208;-71
2021/12/18 09:14:05;;;;;;;2.17;1.27;;;7.80;99.90;;;;;;5055131;28;20199;-71
2021/12/18 09:16:32;;;;;;;1.53;0.97;;;7.80;99.90;;;;;;5051214;28;20199;-71
2021/12/18 09:18:59;;;;;;;2.67;1.63;;;7.80;99.90;;;;;;5054043;28;20256;-71
2021/12/18 09:21:26;;;;;;;2.57;1.97;;;7.80;99.90;;;;;;5053299;28;20689;-71
2021/12/18 09:23:53;;;;;;;3.23;1.80;;;7.90;99.90;;;;;;5046336;28;20195;-71
2021/12/18 09:26:21;;;;;;;1.50;1.40;;;7.90;99.90;;;;;;5053560;28;20198;-71
2021/12/18 09:28:48;;;;;;;1.77;1.60;;;7.90;99.90;;;;;;5054033;28;20668;-71
2021/12/18 09:31:15;;;;;;;2.33;1.70;;;7.90;99.90;;;;;;5053678;28;20202;-72
2021/12/18 09:33:42;;;;;;;2.50;2.00;;;7.90;99.90;;;;;;5053786;28;20211;-71
2021/12/18 09:36:09;;;;;;;3.17;1.90;;;7.90;99.90;;;;;;5053816;28;20577;-71
2021/12/18 09:38:36;;;;;;;2.10;1.77;;;8.00;99.90;;;;;;5053783;28;20214;-71
2021/12/18 09:41:06;;;;;;;2.97;1.87;;;8.00;99.90;;;;;;5053013;28;20229;-70
2021/12/18 09:43:34;;;;;;;2.60;1.87;;;7.90;99.90;;;;;;5052595;28;20252;-72
2021/12/18 09:46:03;;;;;;;3.90;2.63;;;8.00;99.90;;;;;;5053247;28;20207;-72
2021/12/18 09:48:30;;;;;;;3.33;1.97;;;8.00;99.90;;;;;;5052540;28;20645;-72
2021/12/18 09:50:59;;;;;;;2.83;2.20;;;8.00;99.90;;;;;;5054063;28;20198;-67
2021/12/18 09:53:26;;;;;;;4.40;2.63;;;8.00;99.90;;;;;;5052208;28;20257;-67
2021/12/18 09:55:53;;;;;;;5.03;3.17;;;8.00;99.90;;;;;;5053180;28;20203;-67
2021/12/18 09:58:20;;;;;;;3.37;2.37;;;8.00;99.90;;;;;;5055952;28;20219;-67
2021/12/18 10:00:48;;;;;;;3.50;2.37;;;8.10;99.90;;;;;;5064451;28;20226;-67
2021/12/18 10:03:15;;;;;;;3.47;2.90;;;8.10;99.90;;;;;;5066852;28;20198;-67
2021/12/18 10:05:42;;;;;;;3.40;2.70;;;8.10;99.90;;;;;;5067636;28;20712;-67
2021/12/18 10:08:12;;;;;;;5.13;3.03;;;8.10;99.90;;;;;;5069907;28;20683;-67
2021/12/18 10:10:57;;;;;;;2.00;1.80;;;8.00;99.90;;;;;;5058264;28;20197;-67
2021/12/18 10:13:24;;;;;;;2.97;2.00;;;7.90;99.90;;;;;;5066401;28;20206;-68
2021/12/18 10:16:07;;;;;;;5.83;3.83;;;8.00;99.90;;;;;;5060047;28;20201;-68
2021/12/18 10:18:34;;;;;;;3.67;2.53;;;7.90;99.90;;;;;;5072473;28;20564;-69
2021/12/18 10:21:09;;;;;;;2.23;1.90;;;7.90;99.90;;;;;;5058907;28;20245;-68
2021/12/18 10:23:36;;;;;;;2.70;2.13;;;7.90;99.90;;;;;;5052540;28;20212;-68
2021/12/18 10:26:03;;;;;;;2.50;1.93;;;7.90;99.90;;;;;;5054813;28;20207;-69
2021/12/18 10:28:44;;;;;;;2.97;2.23;;;7.90;99.90;;;;;;5052782;28;20221;-68
2021/12/18 10:31:12;;;;;;;2.23;1.80;;;7.80;99.90;;;;;;5069405;28;20195;-68
2021/12/18 10:33:39;;;;;;;2.77;1.77;;;7.90;99.90;;;;;;5051694;28;20575;-68
2021/12/18 10:36:13;;;;;;;2.40;1.50;;;7.90;99.90;;;;;;5060618;28;20207;-69
2021/12/18 10:38:45;;;;;;;2.30;1.40;;;7.90;99.90;;;;;;5051561;28;20214;-68
2021/12/18 10:41:27;;;;;;;5.07;2.77;;;7.90;99.90;;;;;;5069062;28;20218;-69
2021/12/18 10:43:56;;;;;;;1.37;1.23;;;8.00;99.90;;;;;;5062950;28;20199;-69
2021/12/18 10:46:25;;;;;;;1.90;1.40;;;8.00;99.90;;;;;;5047948;28;20219;-69
2021/12/18 10:49:00;;;;;;;3.27;1.60;;;8.00;99.90;;;;;;5051942;28;20542;-68
2021/12/18 10:51:29;;;;;;;2.40;1.53;;;8.00;99.90;;;;;;5052139;28;20209;-68
2021/12/18 10:54:04;;;;;;;2.60;1.73;;;8.00;99.90;;;;;;5052378;28;20672;-68
2021/12/18 10:56:36;;;;;;;3.50;1.77;;;8.00;99.90;;;;;;5049491;28;20198;-68
2021/12/18 10:59:06;;;;;;;4.00;1.60;;;8.00;99.90;;;;;;5050144;28;20333;-68
2021/12/18 11:01:37;;;;;;;2.67;1.90;;;8.00;99.90;;;;;;5051582;28;20226;-68
2021/12/18 11:04:06;;;;;;;2.57;1.70;;;8.10;99.90;;;;;;5049501;28;20642;-68
2021/12/18 11:06:33;;;;;;;2.60;1.50;;;8.00;99.90;;;;;;5044825;28;20269;-68
2021/12/18 11:09:09;;;;;;;2.50;2.03;;;8.10;99.90;;;;;;5051753;28;20199;-68
2021/12/18 11:14:37;;;;;;;1.93;1.60;;;8.10;99.90;;;;;;5047559;28;20213;-68
2021/12/18 11:17:09;;;;;;;5.03;2.00;;;8.20;99.90;;;;;;5046424;28;20571;-68
2021/12/18 11:19:37;;;;;;;2.90;2.00;;;8.20;99.90;;;;;;5046499;28;20210;-69
2021/12/18 11:22:06;;;;;;;2.97;1.83;;;8.20;99.90;;;;;;5048114;28;20340;-68
2021/12/18 11:24:35;;;;;;;3.40;2.43;;;8.20;99.90;;;;;;5047862;28;20257;-68
2021/12/18 11:27:05;;;;;;;3.90;2.53;;;8.20;99.90;;;;;;5042948;28;20310;-69
2021/12/18 11:29:40;;;;;;;3.83;2.50;;;8.30;99.90;;;;;;5045479;28;20209;-68
2021/12/18 11:32:10;;;;;;;3.13;2.60;;;8.20;99.90;;;;;;5047259;28;20248;-68
2021/12/18 11:34:38;;;;;;;4.13;3.00;;;8.20;99.90;;;;;;5050481;28;20207;-68
2021/12/18 11:37:07;;;;;;;6.23;4.07;;;8.20;99.90;;;;;;5048256;28;20206;-68
2021/12/18 11:39:36;;;;;;;7.80;4.23;;;8.20;99.90;;;;;;5048401;28;20305;-68
2021/12/18 11:42:05;;;;;;;10.93;5.07;;;8.20;99.90;;;;;;5051140;28;20591;-68
2021/12/18 11:44:35;;;;;;;10.97;5.50;;;8.20;99.90;;;;;;5048391;28;20573;-68
2021/12/18 11:47:29;;;;;;;8.43;4.80;;;8.20;99.90;;;;;;5052294;28;20620;-68
2021/12/18 11:49:58;;;;;;;7.30;4.47;;;8.20;99.90;;;;;;5047934;28;20294;-68
2021/12/18 11:52:26;;;;;;;5.23;3.90;;;8.20;99.90;;;;;;5048482;28;20194;-68
2021/12/18 11:54:56;;;;;;;4.63;3.30;;;8.20;99.90;;;;;;5053500;28;20256;-68
2021/12/18 11:57:42;;;;;;;3.70;2.60;;;8.10;99.90;;;;;;5051175;28;20699;-68
2021/12/18 12:00:31;;;;;;;2.70;2.03;;;8.10;99.90;;;;;;5049879;28;20572;-68
2021/12/18 12:03:01;;;;;;;1.40;1.30;;;8.10;99.90;;;;;;5051461;28;20229;-68
2021/12/18 12:05:38;;;;;;;2.53;1.70;;;8.00;99.90;;;;;;5050698;28;20211;-68
2021/12/18 12:08:41;;;;;;;1.87;1.53;;;8.00;99.90;;;;;;5051134;28;20198;-68
2021/12/18 12:11:24;;;;;;;2.33;1.43;;;8.00;99.90;;;;;;5050105;28;20539;-68
2021/12/18 12:14:13;;;;;;;1.80;1.20;;;8.00;99.90;;;;;;5050607;28;20249;-68
2021/12/18 12:17:06;;;;;;;1.10;1.00;;;8.00;99.90;;;;;;5044904;28;20226;-67
2021/12/18 12:19:53;;;;;;;4.17;1.60;;;8.10;99.90;;;;;;5049277;28;20657;-68
2021/12/18 12:22:36;;;;;;;2.00;1.33;;;8.10;99.90;;;;;;5046449;28;20229;-68
2021/12/18 12:25:05;;;;;;;1.50;1.40;;;8.10;99.90;;;;;;5048211;28;20203;-68
2021/12/18 12:27:34;;;;;;;1.70;1.30;;;8.10;99.90;;;;;;5050178;28;20199;-68
2021/12/18 12:30:04;;;;;;;2.20;1.80;;;8.10;99.90;;;;;;5053007;28;20207;-68
2021/12/18 12:32:31;;;;;;;1.90;1.53;;;8.10;99.90;;;;;;5053774;28;20207;-68
2021/12/18 12:35:02;;;;;;;2.37;1.30;;;8.10;99.90;;;;;;5054561;28;20202;-68
2021/12/18 12:37:35;;;;;;;2.40;1.73;;;8.10;99.90;;;;;;5055702;28;20203;-68
2021/12/18 12:40:06;;;;;;;2.20;1.60;;;8.10;99.90;;;;;;5052305;28;20667;-68
2021/12/18 12:42:33;;;;;;;1.30;1.20;;;8.10;99.90;;;;;;5052735;28;20258;-67
2021/12/18 12:45:04;;;;;;;2.93;1.30;;;8.10;99.90;;;;;;5053937;28;20199;-68
2021/12/18 12:47:32;;;;;;;2.70;1.30;;;8.10;99.90;;;;;;5053567;28;20203;-68
2021/12/18 12:50:22;;;;;;;1.90;1.30;;;8.20;99.90;;;;;;5052035;28;20290;-68
2021/12/18 12:52:52;;;;;;;2.73;1.70;;;8.10;99.90;;;;;;5051438;28;20668;-68
2021/12/18 12:55:21;;;;;;;1.83;1.63;;;8.10;99.90;;;;;;5053197;28;20234;-68
2021/12/18 12:57:51;;;;;;;1.90;1.57;;;8.10;99.90;;;;;;5051428;28;20215;-68
2021/12/18 13:00:42;;;;;;;1.13;1.00;;;8.00;99.90;;;;;;5052903;28;20213;-68
2021/12/18 13:03:31;;;;;;;1.20;1.07;;;8.10;99.90;;;;;;5050766;28;20593;-68
2021/12/18 13:06:05;;;;;;;2.93;1.53;;;8.00;99.90;;;;;;5053962;28;20294;-68
2021/12/18 13:08:35;;;;;;;4.47;2.10;;;8.10;99.90;;;;;;5051729;28;20209;-68
2021/12/18 13:11:03;;;;;;;3.03;1.50;;;8.00;99.90;;;;;;5057562;28;20548;-68
2021/12/18 13:13:32;;;;;;;1.80;1.30;;;8.00;99.90;;;;;;5049316;28;20649;-68
2021/12/18 13:16:02;;;;;;;3.43;2.17;;;8.00;99.90;;;;;;5050864;28;20198;-68
2021/12/18 13:18:31;;;;;;;1.83;1.30;;;8.00;99.90;;;;;;5051403;28;20298;-68
2021/12/18 13:21:00;;;;;;;1.53;1.33;;;8.00;99.90;;;;;;5047804;28;20249;-68
2021/12/18 13:23:50;;;;;;;2.53;1.73;;;8.00;99.90;;;;;;5052309;28;20676;-68
2021/12/18 13:26:19;;;;;;;3.00;1.70;;;8.00;99.90;;;;;;5066652;22;20235;-69
2021/12/18 13:28:51;;;;;;;1.57;1.47;;;8.00;99.90;;;;;;5050927;28;20195;-69
2021/12/18 13:31:21;;;;;;;1.20;1.10;;;8.00;99.90;;;;;;5047650;28;20211;-69
2021/12/18 13:33:58;;;;;;;2.50;1.33;;;8.00;99.90;;;;;;5045294;28;20203;-70